AirNav   Air Wisconsin Up To $57,000 Bonus
 
 1423 users online  

3TA5 Blanco Landing Airport
Blanco, Texas, USA

GOING TO BLANCO?


FAA INFORMATION EFFECTIVE 20 MAY 2021

Location

FAA Identifier: 3TA5
Lat/Long: 30-07-20.8800N 098-22-29.2200W
30-07.348000N 098-22.487000W
30.1224667,-98.3747833
(estimated)
Elevation: 1460 ft. / 445 m (estimated)
Variation: 07E (1985)
From city: 3 miles NE of BLANCO, TX
Time zone: UTC -5 (UTC -6 during Standard Time)
Zip code: 78606

Airport Operations

Airport use: Private use. Permission required prior to landing
Activation date: 03/1981
Control tower: no
ARTCC: HOUSTON CENTER
FSS: SAN ANGELO FLIGHT SERVICE STATION
Attendance: UNATNDD
Wind indicator: yes
Segmented circle: no

Airport Communications

CTAF: 122.9

Nearby radio navigation aids

VOR radial/distance  VOR name  Freq  Var
STVr098/17.9STONEWALL VORTAC113.8008E
SATr001/29.1SAN ANTONIO VORTAC116.8008E
RNDr348/36.5RANDOLPH VORTAC112.3005E

Airport Services

Runway Information

Runway 1/19

Dimensions: 3450 x 27 ft. / 1052 x 8 m
Surface: asphalt
RUNWAY 1  RUNWAY 19
Traffic pattern: leftleft

Airport Ownership and Management from official FAA records

Ownership: Privately-owned
Owner: THE LANDING P.O.A.
3238 HWY 281 N
BLANCO, TX 78606
Phone (510) 910-3269
Manager: ROBERT GARCIA JR
3238 HWY 281 N
BLANCO, TX 78606
Phone (915) 525-7792
OTR (512) 461-5158

Airport Operational Statistics

Aircraft based on the field: 9
Single engine airplanes: 8
Helicopters: 1
    

Additional Remarks

FOR CD CTC HOUSTON ARTCC AT 281-230-5622.
RCMD OVER-FLY FLD TO INSURE RWY CLEAR OF WILDLIFE & MAINT CREWS AND TO CHECK WIND DRCTN FOR LNDG.
TALL TREES AT SOUTH AER TO INSURE PROPER CLNC.

Instrument Procedures

There are no published instrument procedures at 3TA5.

Some nearby airports with instrument procedures:

3R9 - Lakeway Airpark (24 nm NE)
T82 - Gillespie County Airport (29 nm W)
5C1 - Boerne Stage Field Airport (29 nm SW)
KHYI - San Marcos Regional Airport (30 nm SE)
KBAZ - New Braunfels Regional Airport (30 nm SE)
 
Loc | Ops | Rwys | IFR | FBO | Links
Com | Nav | Svcs | Stats | Notes
Area around 3TA5 (Blanco Landing Airport)
 
Road maps at: MapQuest Bing Google
 
Aerial photo
WARNING: Photo may not be current or correct
Aerial photo of 3TA5 (Blanco Landing Airport)
Photo taken 18-Jul-2017
looking south.

Do you have a better or more recent aerial photo of Blanco Landing Airport that you would like to share? If so, please send us your photo.

 
Sectional chart

 
Airport distance calculator
Flying to Blanco Landing Airport? Find the distance to fly.

From to 3TA5

Sunrise and sunset
Times for 15-Jun-2021
 Local
(UTC-5)
 Zulu
(UTC)
Morning civil twilight06:0511:05
Sunrise06:3311:33
Sunset20:3501:35
Evening civil twilight21:0302:03

Current date and time
Zulu (UTC)  15-Jun-2021 21:13:02
Local (UTC-5)  15-Jun-2021 16:13:02
 
METAR
KDZB 
24nm N 
152055Z AUTO 06005KT 10SM SCT070 SCT090 36/17 A3001 RMK AO2 T03560166
KT82 
29nm W 
152055Z AUTO 08006KT 10SM SCT075 33/16 A3004 RMK AO2 T03300163
K5C1 
29nm SW 
152055Z AUTO 07005KT 10SM SCT065 SCT075 34/17 A3001 RMK AO1
KBAZ 
30nm SE 
152051Z AUTO 08004KT 10SM CLR 36/19 A2995 RMK AO2 LTG DSNT W SLP133 T03610194 58017
KHYI 
30nm SE 
152056Z 06006KT 10SM SCT065 35/22 A2997 RMK AO2 SLP139 T03500217 58017
KRYW 
31nm NE 
152055Z AUTO 08007KT 10SM CLR 37/19 A3001 RMK AO2 T03650187
KSAT 
36nm S 
152051Z 07009KT 10SM FEW065 SCT250 34/19 A2998 RMK AO2 SLP133 CB SHRA DSNT NE MOV SW T03440194 56015
KAUS 
36nm E 
152053Z 03011KT 10SM CLR 35/20 A2996 RMK AO2 SLP132 T03500200 58017 $
KATT 
37nm E 
152051Z AUTO VRB03KT 10SM FEW070 37/16 A2998 RMK AO2 SLP135 T03670161 56016
KRND 
37nm S 
152056Z AUTO 09005KT 10SM FEW065 SCT220 33/22 A2996 RMK AO2 SLP136 T03310222 57017
TAF
KSAT 
36nm S 
151739Z 1518/1624 10004KT P6SM FEW040 FEW250 FM152100 06010KT P6SM VCSH SCT050 SCT250 FM160400 10005KT P6SM SCT050 FM160800 VRB03KT P6SM SCT050 FM161500 08006KT P6SM SCT050
KAUS 
36nm E 
151739Z 1518/1624 04008KT P6SM SCT050 FM160400 VRB03KT P6SM SCT050 FM161500 08006KT P6SM SCT050
KRND 
37nm S 
151545Z 1516/1622 06009KT 9999 SKC QNH2994INS BECMG 1520/1521 07009KT 9999 VCTS FEW050CB SCT250 QNH2991INS BECMG 1602/1603 VRB06KT 9999 NSW SCT040 QNH2997INS BECMG 1611/1612 VRB06KT 9999 SCT015 QNH2999INS TX35/1521Z TN23/1612Z LAST NO AMDS AFT 1600 NEXT 1610
NOTAMs
Click for the latest NOTAMs
NOTAMs are issued by the DoD/FAA and will open in a separate window not controlled by AirNav.

 

 
 

Would you like to see your business listed on this page?

 If your business provides an interesting product or service to pilots, flight crews, aircraft, or users of the Blanco Landing Airport, you should consider listing it here.  To start the listing process, click on the button below
 
Add a business
 

Other Pages about Blanco Landing Airport

Update a link
 
Copyright © AirNav, LLC. All rights reserved. Privacy Policy  Contact